Time;durP1;ratioP1;P1;durP2;ratioP2;P2;SDS_P1;SDS_P2;PMS_P1;PMS_P2;Temp;Humidity;BMP_temperature;BMP_pressure;BME280_temperature;BME280_humidity;BME280_pressure;Samples;Min_cycle;Max_cycle;Signal;HPM_P1;HPM_P2
2021/11/26 00:02:01;;;;;;;77.95;28.55;;;2.50;74.60;;;;;;5052804;28;20037;-64
2021/11/26 00:04:27;;;;;;;73.57;26.90;;;2.60;74.80;;;;;;5052866;28;20465;-64
2021/11/26 00:06:53;;;;;;;71.30;26.90;;;2.60;74.60;;;;;;5052635;28;20100;-64
2021/11/26 00:09:19;;;;;;;67.28;25.52;;;2.60;74.70;;;;;;5052642;28;20051;-64
2021/11/26 00:11:44;;;;;;;55.15;23.80;;;2.70;74.80;;;;;;5052233;28;20095;-64
2021/11/26 00:14:23;;;;;;;50.40;20.75;;;2.70;74.80;;;;;;5052486;28;20036;-66
2021/11/26 00:16:56;;;;;;;60.83;24.67;;;2.70;74.80;;;;;;5052467;28;20017;-65
2021/11/26 00:19:22;;;;;;;48.65;21.85;;;2.70;74.90;;;;;;5052358;28;20021;-65
2021/11/26 00:21:47;;;;;;;52.80;22.33;;;2.80;74.90;;;;;;5052469;28;20044;-65
2021/11/26 00:24:13;;;;;;;44.35;21.67;;;2.80;74.80;;;;;;5051137;28;20877;-64
2021/11/26 00:26:40;;;;;;;49.17;21.90;;;2.80;74.80;;;;;;5052338;28;20060;-65
2021/11/26 00:29:06;;;;;;;41.30;20.45;;;2.80;74.90;;;;;;5052186;28;20070;-63
2021/11/26 00:31:33;;;;;;;36.05;18.50;;;2.80;75.00;;;;;;5051892;28;20029;-65
2021/11/26 00:33:59;;;;;;;36.65;18.23;;;2.80;74.90;;;;;;5052151;28;20428;-63
2021/11/26 00:36:25;;;;;;;38.88;18.20;;;2.80;75.00;;;;;;5052053;28;20052;-63
2021/11/26 00:38:51;;;;;;;35.45;17.58;;;2.80;74.90;;;;;;5052013;28;20056;-64
2021/11/26 00:41:16;;;;;;;32.67;16.17;;;2.90;75.00;;;;;;5051864;28;20385;-63
2021/11/26 00:43:44;;;;;;;34.17;16.63;;;2.80;75.20;;;;;;5051988;28;20028;-63
2021/11/26 00:46:10;;;;;;;28.10;14.32;;;2.90;75.30;;;;;;5052031;28;20019;-64
2021/11/26 00:48:36;;;;;;;28.83;14.38;;;2.90;75.40;;;;;;5051946;28;20446;-63
2021/11/26 00:51:02;;;;;;;27.48;15.90;;;2.90;75.40;;;;;;5051925;28;20111;-64
2021/11/26 00:53:28;;;;;;;25.38;14.35;;;2.90;75.40;;;;;;5047005;28;20115;-65
2021/11/26 00:55:54;;;;;;;24.88;14.45;;;2.80;75.30;;;;;;5051728;28;20025;-63
2021/11/26 00:58:19;;;;;;;27.67;15.35;;;2.80;75.50;;;;;;5051190;28;20387;-63
2021/11/26 01:00:45;;;;;;;30.17;16.80;;;2.80;75.70;;;;;;5051904;28;20383;-64
2021/11/26 01:03:11;;;;;;;30.77;16.55;;;2.80;76.10;;;;;;5051774;28;20063;-63
2021/11/26 01:05:37;;;;;;;35.17;17.02;;;2.80;76.30;;;;;;5051609;28;20103;-64
2021/11/26 01:08:03;;;;;;;45.47;20.25;;;2.80;76.40;;;;;;5051512;28;20063;-65
2021/11/26 01:10:29;;;;;;;46.88;21.48;;;2.80;76.60;;;;;;5051521;28;20045;-65
2021/11/26 01:12:54;;;;;;;48.28;22.33;;;2.80;76.70;;;;;;5051577;28;20055;-64
2021/11/26 01:15:25;;;;;;;47.65;22.92;;;2.80;76.70;;;;;;5051755;28;20028;-64
2021/11/26 01:17:51;;;;;;;48.70;23.33;;;2.80;77.10;;;;;;5051531;28;20024;-64
2021/11/26 01:20:21;;;;;;;42.15;22.20;;;2.80;77.10;;;;;;5051537;28;20020;-64
2021/11/26 01:22:47;;;;;;;40.65;20.50;;;2.80;77.00;;;;;;5051819;28;20029;-64
2021/11/26 01:25:14;;;;;;;40.95;20.08;;;2.80;77.10;;;;;;5051698;28;20090;-64
2021/11/26 01:27:40;;;;;;;35.03;18.08;;;2.90;77.30;;;;;;5051587;28;20036;-65
2021/11/26 01:30:14;;;;;;;30.27;17.08;;;2.80;77.10;;;;;;5051430;28;20029;-63
2021/11/26 01:32:41;;;;;;;28.50;16.35;;;2.90;77.20;;;;;;5051402;28;20029;-63
2021/11/26 01:35:07;;;;;;;28.50;16.17;;;2.90;77.20;;;;;;5051524;28;20021;-63
2021/11/26 01:37:33;;;;;;;27.00;15.27;;;2.90;77.30;;;;;;5051341;28;20100;-63
2021/11/26 01:39:59;;;;;;;27.50;15.77;;;2.90;77.20;;;;;;5051469;28;20428;-64
2021/11/26 01:42:24;;;;;;;27.10;15.52;;;2.90;77.60;;;;;;5051378;28;20029;-65
2021/11/26 01:44:50;;;;;;;27.92;15.57;;;2.80;77.60;;;;;;5051403;28;20464;-62
2021/11/26 01:47:16;;;;;;;27.20;15.63;;;2.80;78.00;;;;;;5051390;28;20083;-62
2021/11/26 01:49:42;;;;;;;25.98;14.98;;;2.80;78.00;;;;;;5051278;28;20033;-64
2021/11/26 01:52:07;;;;;;;28.50;16.10;;;2.80;77.90;;;;;;5051160;28;20057;-63
2021/11/26 01:54:33;;;;;;;29.85;15.27;;;2.80;78.20;;;;;;5051201;28;20025;-63
2021/11/26 01:56:59;;;;;;;30.60;15.38;;;2.90;78.10;;;;;;5051212;28;20388;-63
2021/11/26 01:59:25;;;;;;;38.20;18.55;;;2.80;78.20;;;;;;5051455;28;20021;-63
2021/11/26 02:01:50;;;;;;;40.30;19.38;;;2.80;78.60;;;;;;5051296;28;20112;-64
2021/11/26 02:04:16;;;;;;;46.22;20.98;;;2.80;78.60;;;;;;5051255;28;20021;-65
2021/11/26 02:06:42;;;;;;;51.55;23.75;;;2.80;78.90;;;;;;5051153;28;20392;-64
2021/11/26 02:09:08;;;;;;;56.05;24.30;;;2.80;79.20;;;;;;5051090;28;20060;-64
2021/11/26 02:11:34;;;;;;;59.33;25.60;;;2.90;79.50;;;;;;5053938;28;20080;-64
2021/11/26 02:14:00;;;;;;;58.50;25.25;;;2.90;79.40;;;;;;5054854;28;20068;-63
2021/11/26 02:16:26;;;;;;;52.20;23.55;;;2.90;79.50;;;;;;5054784;28;20021;-63
2021/11/26 02:18:51;;;;;;;56.95;23.45;;;2.90;79.60;;;;;;5054673;28;20029;-63
2021/11/26 02:21:19;;;;;;;64.00;26.83;;;3.00;79.70;;;;;;5054612;28;20354;-65
2021/11/26 02:23:46;;;;;;;66.22;27.42;;;3.00;79.80;;;;;;5054693;28;20040;-63
2021/11/26 02:26:12;;;;;;;74.75;30.98;;;3.00;79.80;;;;;;5054553;28;20468;-64
2021/11/26 02:28:38;;;;;;;84.38;32.75;;;3.00;79.60;;;;;;5054617;28;20025;-63
2021/11/26 02:31:03;;;;;;;88.38;35.15;;;3.00;79.80;;;;;;5054524;28;20024;-63
2021/11/26 02:33:29;;;;;;;85.25;33.85;;;3.00;79.80;;;;;;5054242;28;20425;-63
2021/11/26 02:35:55;;;;;;;80.53;31.75;;;3.00;79.90;;;;;;5053156;28;20357;-63
2021/11/26 02:38:25;;;;;;;76.70;30.65;;;3.00;80.20;;;;;;5054431;28;20033;-63
2021/11/26 02:40:52;;;;;;;64.97;27.55;;;3.00;80.20;;;;;;5052468;28;20373;-63
2021/11/26 02:43:18;;;;;;;82.72;34.30;;;3.00;80.30;;;;;;5035138;28;20071;-63
2021/11/26 02:45:45;;;;;;;101.97;38.45;;;3.00;80.20;;;;;;5034217;28;20508;-63
2021/11/26 02:48:13;;;;;;;98.82;38.50;;;3.00;80.40;;;;;;5034059;28;20033;-63
2021/11/26 02:50:40;;;;;;;112.72;42.42;;;3.10;80.50;;;;;;5034183;28;20021;-63
2021/11/26 02:53:07;;;;;;;106.25;41.10;;;3.10;80.60;;;;;;5034236;28;20023;-64
2021/11/26 02:55:34;;;;;;;107.00;41.53;;;3.10;80.60;;;;;;5034266;28;20040;-63
2021/11/26 02:58:02;;;;;;;110.63;41.45;;;3.20;80.60;;;;;;5033988;28;20033;-63
2021/11/26 03:00:29;;;;;;;108.95;40.60;;;3.20;80.60;;;;;;5034026;28;20018;-63
2021/11/26 03:02:56;;;;;;;118.70;42.90;;;3.20;80.50;;;;;;5033980;28;20036;-63
2021/11/26 03:05:23;;;;;;;114.13;39.97;;;3.20;80.60;;;;;;5033980;28;20030;-63
2021/11/26 03:07:49;;;;;;;109.55;40.90;;;3.20;80.50;;;;;;5034028;28;20040;-65
2021/11/26 03:10:17;;;;;;;103.88;40.20;;;3.20;80.50;;;;;;5033905;28;20025;-65
2021/11/26 03:12:48;;;;;;;98.60;39.50;;;3.30;80.50;;;;;;5033884;28;20104;-64
2021/11/26 03:15:15;;;;;;;96.07;38.72;;;3.30;80.40;;;;;;5033773;28;20032;-64
2021/11/26 03:17:41;;;;;;;97.63;39.40;;;3.30;80.40;;;;;;5033875;28;20184;-64
2021/11/26 03:20:07;;;;;;;90.75;37.00;;;3.30;80.30;;;;;;5033843;28;20079;-65
2021/11/26 03:22:33;;;;;;;93.40;37.67;;;3.30;80.30;;;;;;5033058;28;20029;-63
2021/11/26 03:24:59;;;;;;;97.90;38.45;;;3.30;80.20;;;;;;5033653;28;20544;-63
2021/11/26 03:27:25;;;;;;;94.22;37.70;;;3.30;80.10;;;;;;5033466;28;20026;-63
2021/11/26 03:29:51;;;;;;;94.28;36.60;;;3.30;80.20;;;;;;5033454;28;20033;-63
2021/11/26 03:32:16;;;;;;;83.32;32.97;;;3.30;80.30;;;;;;5033505;28;20483;-64
2021/11/26 03:34:42;;;;;;;90.00;35.45;;;3.30;80.30;;;;;;5033283;28;20022;-64
2021/11/26 03:37:08;;;;;;;95.85;38.08;;;3.30;80.10;;;;;;5033448;28;20047;-65
2021/11/26 03:39:34;;;;;;;89.65;35.97;;;3.30;80.20;;;;;;5033400;28;20021;-64
2021/11/26 03:41:59;;;;;;;86.13;36.97;;;3.20;80.30;;;;;;5033552;28;20429;-64
2021/11/26 03:44:25;;;;;;;90.43;35.55;;;3.20;80.40;;;;;;5033404;28;20029;-64
2021/11/26 03:46:51;;;;;;;84.22;34.58;;;3.20;80.40;;;;;;5033403;28;20515;-63
2021/11/26 03:49:17;;;;;;;90.07;35.38;;;3.20;80.60;;;;;;5033060;28;20025;-63
2021/11/26 03:51:43;;;;;;;89.10;35.40;;;3.10;80.90;;;;;;5032920;28;20025;-63
2021/11/26 03:54:08;;;;;;;84.22;33.83;;;3.10;81.00;;;;;;5033140;28;20088;-63
2021/11/26 03:56:34;;;;;;;80.50;33.25;;;3.10;81.30;;;;;;5032891;28;20029;-64
2021/11/26 03:59:00;;;;;;;83.43;33.42;;;3.10;81.50;;;;;;5032849;28;20018;-65
2021/11/26 04:01:26;;;;;;;84.80;32.78;;;3.10;81.40;;;;;;5032932;28;20033;-64
2021/11/26 04:03:52;;;;;;;77.60;31.48;;;3.20;81.40;;;;;;5032567;28;20026;-69
2021/11/26 04:06:17;;;;;;;83.10;31.05;;;3.20;81.50;;;;;;5032610;28;20053;-64
2021/11/26 04:08:43;;;;;;;74.28;28.98;;;3.30;81.30;;;;;;5032687;28;20077;-64
2021/11/26 04:11:09;;;;;;;57.67;24.73;;;3.30;81.50;;;;;;5032354;28;20045;-63
2021/11/26 04:13:35;;;;;;;46.78;21.67;;;3.30;81.30;;;;;;5032442;28;20029;-64
2021/11/26 04:16:04;;;;;;;37.58;19.27;;;3.40;81.20;;;;;;5031131;28;20048;-64
2021/11/26 04:18:33;;;;;;;36.70;18.00;;;3.40;81.00;;;;;;5032346;28;20389;-64
2021/11/26 04:21:00;;;;;;;33.85;17.27;;;3.30;81.00;;;;;;5031135;28;20025;-64
2021/11/26 04:23:26;;;;;;;31.08;16.48;;;3.30;81.10;;;;;;5032620;28;20503;-64
2021/11/26 04:25:51;;;;;;;33.10;17.48;;;3.40;81.30;;;;;;5032271;28;20034;-64
2021/11/26 04:28:17;;;;;;;34.83;18.02;;;3.40;81.30;;;;;;5032411;28;20022;-64
2021/11/26 04:30:43;;;;;;;34.28;17.27;;;3.40;81.10;;;;;;5035942;28;20112;-65
2021/11/26 04:33:09;;;;;;;32.28;17.95;;;3.40;81.10;;;;;;5031346;28;20025;-64
2021/11/26 04:35:35;;;;;;;34.92;18.27;;;3.40;81.20;;;;;;5032207;28;20018;-64
2021/11/26 04:38:00;;;;;;;32.60;17.08;;;3.40;81.20;;;;;;5032019;28;20022;-64
2021/11/26 04:40:26;;;;;;;28.98;17.15;;;3.40;81.40;;;;;;5032177;28;20017;-64
2021/11/26 04:42:52;;;;;;;26.98;16.20;;;3.40;81.40;;;;;;5032337;28;20720;-64
2021/11/26 04:45:18;;;;;;;23.65;14.18;;;3.40;81.40;;;;;;5032056;28;20036;-64
2021/11/26 04:47:44;;;;;;;23.92;15.52;;;3.30;81.30;;;;;;5030612;28;20033;-64
2021/11/26 04:50:12;;;;;;;24.98;14.80;;;3.30;81.40;;;;;;5031983;28;20056;-64
2021/11/26 04:52:38;;;;;;;49.67;33.67;;;3.30;81.40;;;;;;5031790;28;20021;-65
2021/11/26 04:55:05;;;;;;;74.45;50.85;;;3.30;81.70;;;;;;5031881;28;20096;-63
2021/11/26 04:57:31;;;;;;;85.22;57.20;;;3.30;81.70;;;;;;5031878;28;20116;-63
2021/11/26 04:59:57;;;;;;;59.22;40.65;;;3.40;81.80;;;;;;5031952;28;20096;-63
2021/11/26 05:02:23;;;;;;;52.15;36.38;;;3.40;81.90;;;;;;5030493;28;20109;-64
2021/11/26 05:04:48;;;;;;;41.17;26.10;;;3.40;81.80;;;;;;5031653;28;20025;-63
2021/11/26 05:07:16;;;;;;;33.65;21.08;;;3.40;81.90;;;;;;5031820;28;20082;-64
2021/11/26 05:09:42;;;;;;;27.55;16.48;;;3.40;82.00;;;;;;5031777;28;20028;-65
2021/11/26 05:12:08;;;;;;;22.95;14.52;;;3.40;82.40;;;;;;5031567;28;20378;-64
2021/11/26 05:14:34;;;;;;;24.83;15.10;;;3.40;82.00;;;;;;5031708;28;20033;-64
2021/11/26 05:17:00;;;;;;;20.20;12.65;;;3.50;82.30;;;;;;5030314;28;20100;-64
2021/11/26 05:19:26;;;;;;;17.77;11.45;;;3.60;82.40;;;;;;5031652;28;20044;-64
2021/11/26 05:21:52;;;;;;;18.60;11.57;;;3.70;82.20;;;;;;5031460;28;20025;-64
2021/11/26 05:24:17;;;;;;;21.45;13.00;;;3.80;81.80;;;;;;5031562;28;20040;-64
2021/11/26 05:26:43;;;;;;;18.52;12.13;;;3.90;81.40;;;;;;5031331;28;20021;-64
2021/11/26 05:29:09;;;;;;;21.35;12.85;;;3.90;81.10;;;;;;5031540;28;20033;-64
2021/11/26 05:31:37;;;;;;;23.13;13.68;;;3.80;81.00;;;;;;5031299;28;20444;-65
2021/11/26 05:34:05;;;;;;;23.52;13.07;;;3.80;81.10;;;;;;5031453;28;20028;-65
2021/11/26 05:36:32;;;;;;;20.70;13.15;;;3.80;81.20;;;;;;5031254;28;20116;-65
2021/11/26 05:38:58;;;;;;;23.25;13.82;;;3.70;81.20;;;;;;5031346;28;20377;-65
2021/11/26 05:41:24;;;;;;;22.52;13.30;;;3.70;81.30;;;;;;5031314;28;20025;-65
2021/11/26 05:43:50;;;;;;;21.33;13.23;;;3.70;81.60;;;;;;5031834;28;20021;-64
2021/11/26 05:46:16;;;;;;;22.05;12.57;;;3.70;81.70;;;;;;5035402;28;20068;-65
2021/11/26 05:48:42;;;;;;;21.15;12.70;;;3.70;81.80;;;;;;5035438;28;20049;-64
2021/11/26 05:51:08;;;;;;;25.35;13.93;;;3.80;81.80;;;;;;5035596;28;20038;-65
2021/11/26 05:53:33;;;;;;;29.45;15.60;;;3.80;81.70;;;;;;5035361;28;20088;-64
2021/11/26 05:56:00;;;;;;;36.97;16.50;;;3.90;81.50;;;;;;5035374;28;20412;-65
2021/11/26 05:58:27;;;;;;;42.78;18.95;;;3.90;81.30;;;;;;5035201;28;20021;-65
2021/11/26 06:00:54;;;;;;;47.33;20.33;;;3.90;81.30;;;;;;5035133;28;20076;-65
2021/11/26 06:03:20;;;;;;;33.95;16.40;;;3.90;81.10;;;;;;5034938;28;20026;-66
2021/11/26 06:05:46;;;;;;;33.53;16.38;;;3.90;81.10;;;;;;5034774;28;20030;-65
2021/11/26 06:08:11;;;;;;;30.38;14.32;;;3.90;81.10;;;;;;5034735;28;20370;-63
2021/11/26 06:10:37;;;;;;;30.95;14.80;;;3.90;81.10;;;;;;5034423;28;20121;-64
2021/11/26 06:13:03;;;;;;;29.38;14.70;;;4.00;81.10;;;;;;5034411;28;20522;-64
2021/11/26 06:15:29;;;;;;;27.10;14.45;;;4.00;81.00;;;;;;5034585;28;20036;-63
2021/11/26 06:17:55;;;;;;;24.35;13.38;;;4.00;80.90;;;;;;5037449;28;20370;-64
2021/11/26 06:20:21;;;;;;;23.10;12.93;;;4.10;80.80;;;;;;5034459;28;20101;-65
2021/11/26 06:22:47;;;;;;;28.73;14.77;;;4.10;80.70;;;;;;5034534;28;20033;-65
2021/11/26 06:25:17;;;;;;;37.65;16.50;;;4.20;80.60;;;;;;5034431;28;20017;-65
2021/11/26 06:27:43;;;;;;;38.90;17.98;;;4.20;80.20;;;;;;5034552;28;20033;-65
2021/11/26 06:30:11;;;;;;;43.65;18.95;;;4.20;80.10;;;;;;5034525;28;20118;-65
2021/11/26 06:32:38;;;;;;;54.63;23.58;;;4.20;80.00;;;;;;5034365;28;20392;-64
2021/11/26 06:35:04;;;;;;;57.85;24.35;;;4.30;79.80;;;;;;5034310;28;20018;-65
2021/11/26 06:37:30;;;;;;;59.67;24.27;;;4.30;79.60;;;;;;5034480;28;20022;-64
2021/11/26 06:39:55;;;;;;;58.83;24.40;;;4.30;79.60;;;;;;5034706;28;20025;-65
2021/11/26 06:42:22;;;;;;;57.45;24.23;;;4.30;79.60;;;;;;5034255;28;20060;-65
2021/11/26 06:44:48;;;;;;;55.42;24.48;;;4.30;79.50;;;;;;5034283;28;20022;-65
2021/11/26 06:47:14;;;;;;;57.08;23.88;;;4.30;79.40;;;;;;5034002;28;20526;-65
2021/11/26 06:49:40;;;;;;;55.42;23.95;;;4.40;79.50;;;;;;5034133;28;20029;-65
2021/11/26 06:52:05;;;;;;;52.35;22.23;;;4.40;79.40;;;;;;5032870;28;20029;-65
2021/11/26 06:54:31;;;;;;;54.03;23.88;;;4.40;79.40;;;;;;5033928;28;20055;-65
2021/11/26 06:56:57;;;;;;;58.47;25.20;;;4.40;79.50;;;;;;5033215;28;20404;-65
2021/11/26 06:59:23;;;;;;;58.88;24.58;;;4.50;79.20;;;;;;5034115;28;20194;-64
2021/11/26 07:01:48;;;;;;;59.30;23.05;;;4.50;78.90;;;;;;5036430;28;20741;-67
2021/11/26 07:04:14;;;;;;;61.13;25.10;;;4.60;78.80;;;;;;5052126;28;20116;-65
2021/11/26 07:06:40;;;;;;;66.80;27.25;;;4.60;78.90;;;;;;5041594;28;20026;-65
2021/11/26 07:09:06;;;;;;;74.53;28.60;;;4.60;78.90;;;;;;5051944;28;20043;-65
2021/11/26 07:11:32;;;;;;;79.03;29.48;;;4.70;78.80;;;;;;5053393;28;20496;-64
2021/11/26 07:13:58;;;;;;;72.60;28.80;;;4.80;78.70;;;;;;5051529;28;20120;-64
2021/11/26 07:16:24;;;;;;;72.13;28.50;;;4.80;78.80;;;;;;5053552;28;20116;-65
2021/11/26 07:18:50;;;;;;;60.40;25.80;;;4.90;78.90;;;;;;5053642;28;20032;-65
2021/11/26 07:21:16;;;;;;;61.38;25.88;;;5.00;78.60;;;;;;5053360;28;20017;-65
2021/11/26 07:23:41;;;;;;;55.90;24.70;;;5.00;78.40;;;;;;5053522;28;20025;-64
2021/11/26 07:26:07;;;;;;;50.72;23.17;;;5.10;77.90;;;;;;5047582;28;20083;-73
2021/11/26 07:28:33;;;;;;;51.63;24.15;;;5.30;77.60;;;;;;5043072;28;20025;-69
2021/11/26 07:30:59;;;;;;;49.47;21.58;;;5.30;77.40;;;;;;5068194;28;20032;-68
2021/11/26 07:33:25;;;;;;;43.28;20.70;;;5.30;77.70;;;;;;5062345;28;20357;-68
2021/11/26 07:35:50;;;;;;;51.80;21.63;;;5.30;77.50;;;;;;5049495;28;20388;-66
2021/11/26 07:38:16;;;;;;;44.55;20.42;;;5.40;77.50;;;;;;5047796;28;20035;-75
2021/11/26 07:40:42;;;;;;;49.35;22.83;;;5.40;77.40;;;;;;5060283;28;20031;-72
2021/11/26 07:43:08;;;;;;;52.67;22.95;;;5.50;77.20;;;;;;5047743;28;20032;-70
2021/11/26 07:45:34;;;;;;;47.55;21.20;;;5.50;77.20;;;;;;5052148;28;20037;-70
2021/11/26 07:48:00;;;;;;;45.65;21.05;;;5.60;77.30;;;;;;5041963;28;20048;-74
2021/11/26 07:50:26;;;;;;;43.15;19.33;;;5.60;77.00;;;;;;5041547;28;20021;-71
2021/11/26 07:52:51;;;;;;;29.25;15.63;;;5.70;77.00;;;;;;5045502;28;20419;-72
2021/11/26 07:55:17;;;;;;;20.08;11.30;;;5.80;76.70;;;;;;5048080;28;20016;-72
2021/11/26 07:57:44;;;;;;;16.65;9.77;;;6.00;76.30;;;;;;5072727;28;20020;-67
2021/11/26 08:00:11;;;;;;;14.90;8.05;;;6.20;75.90;;;;;;5041141;28;20029;-65
2021/11/26 08:02:37;;;;;;;18.17;8.32;;;6.30;75.20;;;;;;5051779;28;20078;-66
2021/11/26 08:05:03;;;;;;;13.40;7.78;;;6.50;74.70;;;;;;5052772;28;20100;-65
2021/11/26 08:07:30;;;;;;;13.05;7.97;;;6.60;74.40;;;;;;5052581;28;20374;-65
2021/11/26 08:09:55;;;;;;;13.20;8.20;;;6.70;74.10;;;;;;5051296;28;21823;-65
2021/11/26 08:12:21;;;;;;;14.73;8.43;;;6.70;74.40;;;;;;5052231;28;20472;-65
2021/11/26 08:14:50;;;;;;;16.83;9.05;;;6.70;74.20;;;;;;5052478;28;20037;-66
2021/11/26 08:17:16;;;;;;;14.82;7.93;;;6.70;73.80;;;;;;5052515;28;20029;-66
2021/11/26 08:19:42;;;;;;;11.95;7.90;;;6.80;73.60;;;;;;5052259;28;20017;-66
2021/11/26 08:22:08;;;;;;;13.80;8.27;;;6.80;73.80;;;;;;5052580;28;20391;-65
2021/11/26 08:24:34;;;;;;;11.90;7.82;;;6.80;73.60;;;;;;5052297;28;20025;-68
2021/11/26 08:27:00;;;;;;;13.88;8.05;;;6.80;73.30;;;;;;5052071;28;20079;-67
2021/11/26 08:29:25;;;;;;;14.23;8.68;;;7.00;73.20;;;;;;5052323;28;20017;-66
2021/11/26 08:31:51;;;;;;;16.75;9.68;;;7.00;73.10;;;;;;5045012;28;20526;-68
2021/11/26 08:34:17;;;;;;;15.18;8.50;;;7.00;73.30;;;;;;5032374;28;20098;-68
2021/11/26 08:36:43;;;;;;;13.10;8.10;;;7.00;73.20;;;;;;5032323;28;20456;-66
2021/11/26 08:39:09;;;;;;;10.63;6.75;;;7.10;73.00;;;;;;5031874;28;20021;-66
2021/11/26 08:41:35;;;;;;;11.02;7.47;;;7.30;71.90;;;;;;5032168;28;20101;-67
2021/11/26 08:44:02;;;;;;;13.35;7.72;;;7.30;71.80;;;;;;5032227;28;20030;-66
2021/11/26 08:46:28;;;;;;;12.20;7.57;;;7.30;72.00;;;;;;5032097;28;20076;-66
2021/11/26 08:48:53;;;;;;;13.70;7.28;;;7.30;72.40;;;;;;5031836;28;20416;-66
2021/11/26 08:51:20;;;;;;;12.55;7.82;;;7.50;71.50;;;;;;5031912;28;20070;-68
2021/11/26 08:53:46;;;;;;;12.43;7.60;;;7.80;71.50;;;;;;5031759;28;20025;-66
2021/11/26 08:56:18;;;;;;;11.43;6.93;;;8.40;70.70;;;;;;5031914;28;20436;-65
2021/11/26 08:58:46;;;;;;;11.20;7.32;;;9.00;68.00;;;;;;5032098;28;20488;-67
2021/11/26 09:01:13;;;;;;;10.50;6.55;;;9.50;66.90;;;;;;5035303;28;20024;-66
2021/11/26 09:03:38;;;;;;;14.23;7.10;;;9.90;64.80;;;;;;5031973;28;20484;-66
2021/11/26 09:06:04;;;;;;;15.30;7.63;;;10.20;63.50;;;;;;5031932;28;20040;-66
2021/11/26 09:08:30;;;;;;;13.32;7.22;;;10.20;63.50;;;;;;5032095;28;20515;-67
2021/11/26 09:10:56;;;;;;;11.90;6.90;;;10.40;63.50;;;;;;5031558;28;20054;-67
2021/11/26 09:13:22;;;;;;;11.63;6.88;;;10.50;63.00;;;;;;5031771;28;20030;-67
2021/11/26 09:15:48;;;;;;;11.68;7.30;;;10.60;62.60;;;;;;5031694;28;20483;-67
2021/11/26 09:18:15;;;;;;;10.63;6.95;;;10.70;62.10;;;;;;5031646;28;20021;-66
2021/11/26 09:20:43;;;;;;;11.02;7.15;;;10.90;61.10;;;;;;5030025;28;20065;-67
2021/11/26 09:23:11;;;;;;;10.55;6.10;;;11.10;61.10;;;;;;5031448;28;20030;-65
2021/11/26 09:25:37;;;;;;;10.30;7.10;;;11.20;60.20;;;;;;5031485;28;20057;-67
2021/11/26 09:28:04;;;;;;;9.57;6.00;;;11.30;59.70;;;;;;5031497;28;20132;-66
2021/11/26 09:30:31;;;;;;;10.73;6.63;;;11.60;59.00;;;;;;5031580;28;20079;-67
2021/11/26 09:32:57;;;;;;;12.02;7.43;;;11.50;59.40;;;;;;5034868;28;20381;-66
2021/11/26 09:35:25;;;;;;;13.48;7.80;;;11.60;59.60;;;;;;5047571;28;20029;-66
2021/11/26 09:37:52;;;;;;;10.45;6.10;;;11.90;59.10;;;;;;5051346;28;20108;-67
2021/11/26 09:40:18;;;;;;;11.02;6.97;;;12.40;57.60;;;;;;5051360;28;20022;-67
2021/11/26 09:42:44;;;;;;;10.10;6.50;;;12.40;57.90;;;;;;5051303;28;20025;-67
2021/11/26 09:45:16;;;;;;;11.80;6.28;;;12.60;57.80;;;;;;5051362;28;20427;-69
2021/11/26 09:47:42;;;;;;;10.32;6.43;;;12.90;56.60;;;;;;5051352;28;20021;-66
2021/11/26 09:50:08;;;;;;;10.80;6.90;;;13.10;55.80;;;;;;5051317;28;20473;-66
2021/11/26 09:52:39;;;;;;;9.50;6.30;;;13.10;56.10;;;;;;5051068;28;20047;-66
2021/11/26 09:55:06;;;;;;;9.60;6.25;;;13.30;55.50;;;;;;5051484;28;20014;-66
2021/11/26 09:57:32;;;;;;;11.13;6.70;;;13.30;55.80;;;;;;5051394;28;20029;-66
2021/11/26 09:59:58;;;;;;;10.85;6.47;;;13.70;54.40;;;;;;5051421;28;20017;-67
2021/11/26 10:02:24;;;;;;;10.18;6.60;;;13.80;54.30;;;;;;5046384;28;20487;-67
2021/11/26 10:04:56;;;;;;;12.32;6.80;;;13.80;54.10;;;;;;5050926;28;20052;-67
2021/11/26 10:07:22;;;;;;;9.98;6.30;;;13.60;54.60;;;;;;5050989;28;20100;-66
2021/11/26 10:09:50;;;;;;;11.15;6.53;;;13.70;55.20;;;;;;5051234;28;20100;-66
2021/11/26 10:12:16;;;;;;;9.45;6.53;;;14.00;54.70;;;;;;5051004;28;20041;-65
2021/11/26 10:14:45;;;;;;;9.80;5.80;;;14.30;53.90;;;;;;5051078;28;20029;-65
2021/11/26 10:17:22;;;;;;;9.77;5.65;;;14.40;53.00;;;;;;5051115;28;20021;-66
2021/11/26 10:19:51;;;;;;;9.35;5.53;;;14.50;52.60;;;;;;5050997;28;20044;-66
2021/11/26 10:22:21;;;;;;;9.85;5.93;;;14.20;53.10;;;;;;5050967;28;20029;-66
2021/11/26 10:25:08;;;;;;;9.63;6.30;;;14.30;53.00;;;;;;5051095;28;20026;-67
2021/11/26 10:27:36;;;;;;;10.05;5.82;;;14.20;53.00;;;;;;5050810;28;20104;-68
2021/11/26 10:30:17;;;;;;;9.38;6.13;;;14.20;53.40;;;;;;5046170;28;20033;-67
2021/11/26 10:33:04;;;;;;;10.50;6.10;;;14.40;53.00;;;;;;5054168;28;20021;-69
2021/11/26 10:35:40;;;;;;;9.10;5.80;;;14.50;52.30;;;;;;5054606;28;20044;-67
2021/11/26 10:38:16;;;;;;;11.18;6.32;;;13.90;53.50;;;;;;5054402;28;20029;-68
2021/11/26 10:40:48;;;;;;;9.88;6.20;;;13.60;54.20;;;;;;5054482;28;20017;-67
2021/11/26 10:43:32;;;;;;;9.82;5.75;;;13.40;54.10;;;;;;5054613;28;20429;-66
2021/11/26 11:00:09;;;;;;;9.55;6.03;;;11.50;59.40;;;;;;5054265;28;20029;-67
2021/11/26 11:02:41;;;;;;;10.95;6.53;;;11.20;59.80;;;;;;5049348;28;20028;-66
2021/11/26 11:05:22;;;;;;;10.18;6.20;;;11.00;60.50;;;;;;5033864;28;20087;-66
2021/11/26 11:07:47;;;;;;;11.52;6.72;;;10.70;61.40;;;;;;5033868;28;20041;-67
2021/11/26 11:10:32;;;;;;;12.25;6.38;;;10.70;61.80;;;;;;5033512;28;20080;-66
2021/11/26 11:13:09;;;;;;;12.10;6.72;;;10.60;62.10;;;;;;5032288;28;20033;-66
2021/11/26 11:15:35;;;;;;;10.07;6.25;;;10.50;62.20;;;;;;5033668;28;20132;-65
2021/11/26 11:18:01;;;;;;;13.23;6.32;;;10.40;62.60;;;;;;5033855;28;20017;-66
2021/11/26 11:20:27;;;;;;;10.50;6.47;;;10.20;62.90;;;;;;5033848;28;20041;-66
2021/11/26 11:22:53;;;;;;;10.18;6.10;;;10.20;63.10;;;;;;5033635;28;20104;-66
2021/11/26 11:25:28;;;;;;;9.18;5.95;;;10.10;63.60;;;;;;5033291;28;20022;-66
2021/11/26 11:27:56;;;;;;;12.25;7.18;;;10.00;63.80;;;;;;5033471;28;20071;-67
2021/11/26 11:30:23;;;;;;;10.25;6.20;;;10.00;64.00;;;;;;5033704;28;20045;-67
2021/11/26 11:32:48;;;;;;;12.13;7.35;;;9.90;64.10;;;;;;5033604;28;20036;-67
2021/11/26 11:35:15;;;;;;;13.55;7.75;;;9.80;64.10;;;;;;5033499;28;20429;-67
2021/11/26 11:37:42;;;;;;;12.25;7.85;;;9.80;64.70;;;;;;5033098;28;20032;-67
2021/11/26 11:40:09;;;;;;;11.68;7.43;;;9.70;64.90;;;;;;5033168;28;20097;-66
2021/11/26 11:42:40;;;;;;;10.20;6.68;;;9.70;65.00;;;;;;5032618;28;20104;-67
2021/11/26 11:45:12;;;;;;;10.63;7.00;;;9.70;65.30;;;;;;5032918;28;20365;-67
2021/11/26 11:47:47;;;;;;;11.05;6.72;;;9.60;65.30;;;;;;5032767;28;20028;-67
2021/11/26 11:50:22;;;;;;;9.95;6.60;;;9.70;65.00;;;;;;5032812;28;20033;-66
2021/11/26 11:52:57;;;;;;;10.35;6.38;;;9.50;65.40;;;;;;5032082;28;20064;-66
2021/11/26 11:55:32;;;;;;;10.85;7.63;;;9.50;65.60;;;;;;5032475;28;20029;-66
2021/11/26 11:59:04;;;;;;;12.48;7.30;;;9.40;65.40;;;;;;5032618;28;20476;-66
2021/11/26 12:01:37;;;;;;;11.75;7.43;;;9.40;66.00;;;;;;5003331;28;20034;-66
2021/11/26 12:04:17;;;;;;;12.95;8.05;;;9.30;66.20;;;;;;5032402;28;20080;-68
2021/11/26 12:06:45;;;;;;;12.50;7.10;;;9.30;66.70;;;;;;5031989;28;20022;-67
2021/11/26 12:09:28;;;;;;;11.95;6.80;;;9.20;66.70;;;;;;5032234;28;20039;-67
2021/11/26 12:12:12;;;;;;;12.63;7.38;;;9.20;67.10;;;;;;5032442;28;20103;-67
2021/11/26 12:14:52;;;;;;;11.23;7.25;;;9.10;67.40;;;;;;5032464;28;20060;-66
2021/11/26 12:17:27;;;;;;;11.90;7.00;;;9.00;67.60;;;;;;5032287;28;20435;-67
2021/11/26 12:20:00;;;;;;;12.73;7.15;;;9.10;67.90;;;;;;5031066;28;20032;-67
2021/11/26 12:22:39;;;;;;;11.27;7.00;;;9.00;68.00;;;;;;5032643;28;20037;-67
2021/11/26 12:25:27;;;;;;;12.68;6.93;;;9.00;68.20;;;;;;5032644;28;20029;-67
2021/11/26 12:28:04;;;;;;;12.38;6.90;;;9.00;68.20;;;;;;5032213;28;20028;-67
2021/11/26 12:30:30;;;;;;;12.75;7.15;;;9.00;68.20;;;;;;5030971;28;20392;-67
2021/11/26 12:32:56;;;;;;;11.07;6.63;;;9.00;68.50;;;;;;5032478;28;20043;-67
2021/11/26 12:35:23;;;;;;;12.90;7.25;;;9.00;68.60;;;;;;5032734;28;20064;-67
2021/11/26 12:37:58;;;;;;;12.50;7.40;;;9.00;68.60;;;;;;5032574;28;20025;-68
2021/11/26 12:40:24;;;;;;;11.25;7.18;;;9.00;68.70;;;;;;5032330;28;20025;-67
2021/11/26 12:43:02;;;;;;;12.95;7.97;;;9.00;68.70;;;;;;5031988;28;20025;-67
2021/11/26 12:45:34;;;;;;;11.20;7.45;;;9.00;68.90;;;;;;5032249;28;20018;-67
2021/11/26 12:48:05;;;;;;;28.77;13.45;;;8.90;68.90;;;;;;5032095;28;20037;-67
2021/11/26 12:53:21;;;;;;;21.02;9.98;;;8.90;69.30;;;;;;5031515;28;20044;-67
2021/11/26 12:55:53;;;;;;;25.85;12.82;;;8.90;69.50;;;;;;5031818;28;20025;-66
2021/11/26 12:58:19;;;;;;;27.02;13.60;;;8.80;69.70;;;;;;5032107;28;20424;-67